Hyundai Bangkok — 3EIN6 — position and weather

sailwx.info

Track history (hours):
 
Tides and Currents Weather Stations Pressure Air Temp Water Temp Dewpoint Dewpoint Depression Visibility Wind Speed Wind Dir Waves Ship Positions

Hyundai Bangkok

Last reported at 2018-May-16 04:39 UTC. Time now 2018-May-25 18:54 UTC.
Position N 22°19' E 114°07'.
Warning: this ship's position is 9 days out of date.

Length 303 m; draft 11.3 m.

Type: Cargo ship. MMSI: 372340000.

Date/timePositionNaut miles runAvg speedWind from/ knotsBaromVisibWave heightAir tempDewpointWater temp
2018-May-16 04:39N 22°19' E 114°07'0 0.0
2018-May-15 19:44N 22°20' E 114°07'32115.5
2018-May-14 23:00N 22°31' E 119°54'918.4
2018-May-14 22:30N 22°32' E 120°04'918.4
2018-May-14 22:00N 22°32' E 120°14'510.1
2018-May-14 21:30N 22°34' E 120°19'0 0.9
2018-May-14 20:59N 22°34' E 120°19'0 0.0
2018-May-14 20:29N 22°34' E 120°19'0 0.0
2018-May-14 19:59N 22°34' E 120°19'0 0.0
2018-May-14 19:29N 22°34' E 120°19'0 0.0
2018-May-14 18:59N 22°34' E 120°19'0 0.0
2018-May-14 18:26N 22°34' E 120°19'0 0.0
2018-May-14 17:59N 22°34' E 120°19'0 0.0
2018-May-14 17:29N 22°34' E 120°19'0 0.0
2018-May-14 16:59N 22°34' E 120°19'0 0.0
2018-May-14 16:29N 22°34' E 120°19'0 0.0
2018-May-14 15:59N 22°34' E 120°19'0 0.0
2018-May-14 15:29N 22°34' E 120°19'0 0.0
2018-May-14 14:56N 22°34' E 120°19'0 0.0
2018-May-14 14:29N 22°34' E 120°19'0 0.0
2018-May-14 13:59N 22°34' E 120°19'0 0.0
2018-May-14 13:29N 22°34' E 120°19'0 0.0
2018-May-14 12:59N 22°34' E 120°19'0 0.0
2018-May-14 12:29N 22°34' E 120°19'0 0.0
2018-May-14 11:59N 22°34' E 120°19'0 0.0
2018-May-14 11:29N 22°34' E 120°19'0 0.0
2018-May-14 10:59N 22°34' E 120°19'0 0.0
2018-May-14 10:29N 22°34' E 120°19'0 0.0
2018-May-14 09:59N 22°34' E 120°19'0 0.0
2018-May-14 09:29N 22°34' E 120°19'0 0.0
2018-May-14 08:59N 22°34' E 120°19'0 0.0
2018-May-14 08:29N 22°34' E 120°19'0 0.0
2018-May-14 07:59N 22°34' E 120°19'0 0.0
2018-May-14 07:29N 22°34' E 120°19'0 0.0
2018-May-14 06:59N 22°34' E 120°19'0 0.0
2018-May-14 06:29N 22°34' E 120°19'0 0.8
2018-May-14 06:00N 22°34' E 120°19'2 3.8
2018-May-14 05:30N 22°33' E 120°17'3 6.4
2018-May-14 05:00N 22°32' E 120°14'3 5.9
2018-May-14 04:30N 22°33' E 120°11'4 7.3
2018-May-14 04:00N 22°36' E 120°08'510.3
2018-May-14 03:31N 22°40' E 120°05'1019.6
2018-May-14 03:01N 22°49' E 120°00'1221.1
2018-May-14 02:26N 23°00' E 119°56'919.4
2018-May-14 01:59N 23°09' E 119°56'1018.6
2018-May-14 01:28N 23°19' E 119°55'817.9
2018-May-14 01:00N 23°27' E 119°55'917.0
2018-May-14 00:30N 23°36' E 119°56'816.3
2018-May-14 00:00N 23°44' E 119°57'16616.5
2018-May-13 13:55N 26°04' E 121°35'1018.9
2018-May-13 13:22N 26°12' E 121°41'  
2018-May-11 06:41N 34°58' E 128°50'414.3
2018-May-11 06:25N 34°58' E 128°55'512.5
2018-May-11 06:00N 34°57' E 129°01'815.7
2018-May-11 05:30N 34°58' E 129°11'815.3
2018-May-11 05:01N 35°02' E 129°19'815.4
2018-May-11 04:30N 35°06' E 129°27'815.3
2018-May-11 04:00N 35°11' E 129°35'815.4
2018-May-11 03:30N 35°14' E 129°43'815.3
2018-May-11 03:00N 35°17' E 129°52'715.1
2018-May-11 02:30N 35°20' E 130°00'915.2
2018-May-11 01:55N 35°25' E 130°10'715.6
2018-May-11 01:29N 35°29' E 130°16'815.6
2018-May-11 01:00N 35°33' E 130°23'917.3
2018-May-11 00:30N 35°38' E 130°33'1019.5
2018-May-10 23:59N 35°43' E 130°43'56319.4
2018-May-09 19:01N 41°22' E 140°17'419.4
2018-May-09 18:50N 41°24' E 140°21'719.9
2018-May-09 18:30N 41°28' E 140°28'1020.3
2018-May-09 18:00N 41°34' E 140°39'1019.6
2018-May-09 17:30N 41°38' E 140°51'918.7
2018-May-09 17:00N 41°39' E 141°03'1121.4
2018-May-09 16:30N 41°39' E 141°18'1019.9
2018-May-09 16:00N 41°39' E 141°31'1020.2
2018-May-09 15:30N 41°40' E 141°45'  
2018-May-06 19:00N 50°00' E 172°00'   030 / 30 4.0 4.0
Track history (hours):
 
Tides and Currents Weather Stations Pressure Air Temp Water Temp Dewpoint Dewpoint Depression Visibility Wind Speed Wind Dir Waves Ship Positions

Hyundai Bangkok

Last reported at 2018-May-16 04:39 UTC. Time now 2018-May-25 18:54 UTC.
Position N 22°19' E 114°07'.
Warning: this ship's position is 9 days out of date.

Length 303 m; draft 11.3 m.

Type: Cargo ship. MMSI: 372340000.

Date/timePositionNaut miles runAvg speedWind from/ knotsBaromVisibWave heightAir tempDewpointWater temp
2018-May-16 04:39N 22°19' E 114°07'0 0.0
2018-May-15 19:44N 22°20' E 114°07'32115.5
2018-May-14 23:00N 22°31' E 119°54'918.4
2018-May-14 22:30N 22°32' E 120°04'918.4
2018-May-14 22:00N 22°32' E 120°14'510.1
2018-May-14 21:30N 22°34' E 120°19'0 0.9
2018-May-14 20:59N 22°34' E 120°19'0 0.0
2018-May-14 20:29N 22°34' E 120°19'0 0.0
2018-May-14 19:59N 22°34' E 120°19'0 0.0
2018-May-14 19:29N 22°34' E 120°19'0 0.0
2018-May-14 18:59N 22°34' E 120°19'0 0.0
2018-May-14 18:26N 22°34' E 120°19'0 0.0
2018-May-14 17:59N 22°34' E 120°19'0 0.0
2018-May-14 17:29N 22°34' E 120°19'0 0.0
2018-May-14 16:59N 22°34' E 120°19'0 0.0
2018-May-14 16:29N 22°34' E 120°19'0 0.0
2018-May-14 15:59N 22°34' E 120°19'0 0.0
2018-May-14 15:29N 22°34' E 120°19'0 0.0
2018-May-14 14:56N 22°34' E 120°19'0 0.0
2018-May-14 14:29N 22°34' E 120°19'0 0.0
2018-May-14 13:59N 22°34' E 120°19'0 0.0
2018-May-14 13:29N 22°34' E 120°19'0 0.0
2018-May-14 12:59N 22°34' E 120°19'0 0.0
2018-May-14 12:29N 22°34' E 120°19'0 0.0
2018-May-14 11:59N 22°34' E 120°19'0 0.0
2018-May-14 11:29N 22°34' E 120°19'0 0.0
2018-May-14 10:59N 22°34' E 120°19'0 0.0
2018-May-14 10:29N 22°34' E 120°19'0 0.0
2018-May-14 09:59N 22°34' E 120°19'0 0.0
2018-May-14 09:29N 22°34' E 120°19'0 0.0
2018-May-14 08:59N 22°34' E 120°19'0 0.0
2018-May-14 08:29N 22°34' E 120°19'0 0.0
2018-May-14 07:59N 22°34' E 120°19'0 0.0
2018-May-14 07:29N 22°34' E 120°19'0 0.0
2018-May-14 06:59N 22°34' E 120°19'0 0.0
2018-May-14 06:29N 22°34' E 120°19'0 0.8
2018-May-14 06:00N 22°34' E 120°19'2 3.8
2018-May-14 05:30N 22°33' E 120°17'3 6.4
2018-May-14 05:00N 22°32' E 120°14'3 5.9
2018-May-14 04:30N 22°33' E 120°11'4 7.3
2018-May-14 04:00N 22°36' E 120°08'510.3
2018-May-14 03:31N 22°40' E 120°05'1019.6
2018-May-14 03:01N 22°49' E 120°00'1221.1
2018-May-14 02:26N 23°00' E 119°56'919.4
2018-May-14 01:59N 23°09' E 119°56'1018.6
2018-May-14 01:28N 23°19' E 119°55'817.9
2018-May-14 01:00N 23°27' E 119°55'917.0
2018-May-14 00:30N 23°36' E 119°56'816.3
2018-May-14 00:00N 23°44' E 119°57'16616.5
2018-May-13 13:55N 26°04' E 121°35'1018.9
2018-May-13 13:22N 26°12' E 121°41'  
2018-May-11 06:41N 34°58' E 128°50'414.3
2018-May-11 06:25N 34°58' E 128°55'512.5
2018-May-11 06:00N 34°57' E 129°01'815.7
2018-May-11 05:30N 34°58' E 129°11'815.3
2018-May-11 05:01N 35°02' E 129°19'815.4
2018-May-11 04:30N 35°06' E 129°27'815.3
2018-May-11 04:00N 35°11' E 129°35'815.4
2018-May-11 03:30N 35°14' E 129°43'815.3
2018-May-11 03:00N 35°17' E 129°52'715.1
2018-May-11 02:30N 35°20' E 130°00'915.2
2018-May-11 01:55N 35°25' E 130°10'715.6
2018-May-11 01:29N 35°29' E 130°16'815.6
2018-May-11 01:00N 35°33' E 130°23'917.3
2018-May-11 00:30N 35°38' E 130°33'1019.5
2018-May-10 23:59N 35°43' E 130°43'56319.4
2018-May-09 19:01N 41°22' E 140°17'419.4
2018-May-09 18:50N 41°24' E 140°21'719.9
2018-May-09 18:30N 41°28' E 140°28'1020.3
2018-May-09 18:00N 41°34' E 140°39'1019.6
2018-May-09 17:30N 41°38' E 140°51'918.7
2018-May-09 17:00N 41°39' E 141°03'1121.4
2018-May-09 16:30N 41°39' E 141°18'1019.9
2018-May-09 16:00N 41°39' E 141°31'1020.2
2018-May-09 15:30N 41°40' E 141°45'  
2018-May-06 19:00N 50°00' E 172°00'   030 / 30 4.0 4.0

Dump ship's entire track history